Archival Weather

Sydney Intl

Sydney, Australia (YSSY)

Report from: Wednesday, September 20, 2023 11:32 AM AEST
Current time: Monday, June 17, 2024 9:29 PM AEST

Current weather – Weather history – Daily summaries
Weather forecast

Temperature33.0°C (91.4°F)
Heat index30.6°C (87.1°F)
Dew point1.0°C (33.8°F)
Winds 18 kts (9.3 m/s, 20.7 mph) Northwest (310°)
Wind gusts 28 kts (14.4 m/s, 32.2 mph)
Clouds Sky clear
Altimeter29.74 in.Hg (1007 mB)
Relative humidity13 %
Density altitude2,363 ft. (720 m)
Remarks Ceiling and visibility OK
Special weather observation
Flight conditions Visual Meteorological Conditions
Raw dataSPAU31 KWBC 200144 SPECI YSSY 200132Z 31018G28KT CAVOK 33/01 Q1007
An error has occurred. This application may no longer respond until reloaded. Reload 🗙